Time;durP1;ratioP1;P1;durP2;ratioP2;P2;SDS_P1;SDS_P2;PMS_P1;PMS_P2;Temp;Humidity;BMP_temperature;BMP_pressure;BME280_temperature;BME280_humidity;BME280_pressure;Samples;Min_cycle;Max_cycle;Signal;HPM_P1;HPM_P2
2022/11/03 00:01:36;;;;;;;3.20;1.37;;;15.80;70.70;;;;;;4978910;28;20505;-70
2022/11/03 00:04:05;;;;;;;2.33;1.33;;;15.80;70.70;;;;;;4981026;28;20442;-70
2022/11/03 00:06:34;;;;;;;2.50;1.37;;;15.70;70.50;;;;;;4993458;28;20441;-70
2022/11/03 00:09:05;;;;;;;4.77;1.77;;;15.70;70.50;;;;;;4987556;28;20993;-70
2022/11/03 00:11:34;;;;;;;2.93;1.30;;;15.70;70.50;;;;;;4994094;28;20560;-70
2022/11/03 00:14:05;;;;;;;3.10;1.20;;;15.70;70.70;;;;;;4977938;28;20442;-70
2022/11/03 00:16:34;;;;;;;1.80;1.10;;;15.70;70.50;;;;;;4971982;28;20434;-70
2022/11/03 00:19:02;;;;;;;2.63;1.63;;;15.70;70.60;;;;;;4972580;28;20457;-70
2022/11/03 00:21:31;;;;;;;2.00;1.20;;;15.70;70.80;;;;;;4971439;28;20937;-69
2022/11/03 00:24:01;;;;;;;2.73;1.60;;;15.70;70.80;;;;;;4988566;28;20877;-69
2022/11/03 00:26:31;;;;;;;2.90;1.70;;;15.70;70.90;;;;;;4972395;28;20545;-70
2022/11/03 00:29:01;;;;;;;2.10;0.90;;;15.70;71.00;;;;;;4968936;28;20887;-69
2022/11/03 00:31:32;;;;;;;2.97;1.17;;;15.70;70.90;;;;;;4971868;28;20481;-70
2022/11/03 00:34:02;;;;;;;3.33;1.60;;;15.70;70.80;;;;;;4978925;28;20450;-69
2022/11/03 00:36:31;;;;;;;4.40;1.30;;;15.70;70.70;;;;;;4968385;28;20449;-70
2022/11/03 00:39:00;;;;;;;1.37;1.00;;;15.70;70.50;;;;;;4979570;28;20859;-69
2022/11/03 00:41:29;;;;;;;3.80;1.03;;;15.70;70.90;;;;;;4987738;28;20961;-70
2022/11/03 00:43:57;;;;;;;3.83;2.00;;;15.70;70.30;;;;;;5015338;23;20494;-68
2022/11/03 00:46:26;;;;;;;2.17;1.37;;;15.70;70.50;;;;;;5067169;28;21001;-69
2022/11/03 00:48:56;;;;;;;1.10;1.00;;;15.70;70.30;;;;;;5048247;28;20577;-69
2022/11/03 00:51:26;;;;;;;5.10;1.30;;;15.70;70.90;;;;;;5031326;28;20553;-69
2022/11/03 00:53:56;;;;;;;3.93;1.30;;;15.70;70.50;;;;;;5031650;28;20900;-69
2022/11/03 00:56:26;;;;;;;2.93;1.13;;;15.70;70.50;;;;;;5042588;28;20430;-68
2022/11/03 00:58:57;;;;;;;2.37;1.03;;;15.70;70.60;;;;;;5029028;28;20476;-70
2022/11/03 01:01:27;;;;;;;1.83;1.00;;;15.70;70.70;;;;;;5042451;28;20764;-69
2022/11/03 01:06:52;;;;;;;3.03;1.20;;;15.70;70.50;;;;;;5031672;28;20478;-69
2022/11/03 01:09:23;;;;;;;4.07;1.50;;;15.70;70.40;;;;;;5037780;28;20458;-69
2022/11/03 01:11:57;;;;;;;2.47;2.30;;;15.70;70.80;;;;;;5026952;28;20471;-69
2022/11/03 01:14:27;;;;;;;2.47;1.43;;;15.70;70.60;;;;;;5036504;28;21003;-70
2022/11/03 01:16:56;;;;;;;2.40;1.17;;;15.60;70.40;;;;;;5039129;28;20504;-69
2022/11/03 01:19:26;;;;;;;2.80;1.10;;;15.70;70.80;;;;;;5044980;28;20540;-68
2022/11/03 01:21:55;;;;;;;4.60;1.70;;;15.70;71.90;;;;;;5036302;28;21622;-69
2022/11/03 01:24:23;;;;;;;3.53;1.20;;;15.60;70.10;;;;;;5040969;28;20965;-69
2022/11/03 01:26:52;;;;;;;1.87;1.67;;;15.60;70.40;;;;;;5031626;28;20542;-69
2022/11/03 01:29:20;;;;;;;3.00;1.37;;;15.60;70.50;;;;;;5032427;28;20466;-69
2022/11/03 01:31:49;;;;;;;1.93;1.30;;;15.60;70.20;;;;;;5037605;28;20473;-69
2022/11/03 01:34:21;;;;;;;5.23;1.70;;;15.60;70.50;;;;;;5040200;28;20581;-69
2022/11/03 01:36:51;;;;;;;3.73;1.03;;;15.60;71.50;;;;;;5039532;28;20474;-69
2022/11/03 01:39:20;;;;;;;1.60;1.30;;;15.60;70.70;;;;;;5046493;28;20489;-70
2022/11/03 01:41:49;;;;;;;6.30;1.60;;;15.60;70.50;;;;;;5049598;28;21003;-70
2022/11/03 01:44:27;;;;;;;2.30;1.20;;;15.60;70.60;;;;;;5044139;28;20795;-69
2022/11/03 01:47:01;;;;;;;4.97;1.20;;;15.60;70.80;;;;;;5048796;28;20876;-69
2022/11/03 01:49:35;;;;;;;3.30;1.40;;;15.60;70.90;;;;;;5035093;28;20815;-69
2022/11/03 01:52:09;;;;;;;2.03;0.90;;;15.60;70.70;;;;;;5030225;28;20492;-69
2022/11/03 01:54:39;;;;;;;3.37;1.33;;;15.60;70.70;;;;;;5037437;28;20793;-69
2022/11/03 01:57:12;;;;;;;3.20;1.33;;;15.50;70.70;;;;;;5033673;28;20490;-69
2022/11/03 01:59:42;;;;;;;3.37;1.60;;;15.50;70.80;;;;;;5009194;28;20565;-68
2022/11/03 02:02:11;;;;;;;2.00;1.30;;;15.50;70.90;;;;;;5049340;28;20513;-69
2022/11/03 02:04:40;;;;;;;1.47;1.23;;;15.50;70.90;;;;;;5040391;28;20854;-69
2022/11/03 02:07:15;;;;;;;1.83;1.00;;;15.50;71.00;;;;;;5003889;28;20474;-68
2022/11/03 02:09:43;;;;;;;2.90;1.03;;;15.50;71.30;;;;;;5043471;28;20896;-69
2022/11/03 02:12:14;;;;;;;1.93;1.37;;;15.50;71.10;;;;;;5032697;28;20475;-70
2022/11/03 02:14:45;;;;;;;6.23;1.20;;;15.40;71.40;;;;;;5039140;28;20780;-70
2022/11/03 02:17:15;;;;;;;5.70;1.80;;;15.40;71.30;;;;;;5053760;28;20489;-69
2022/11/03 02:19:48;;;;;;;4.13;1.60;;;15.40;71.50;;;;;;5048387;28;20454;-70
2022/11/03 02:22:40;;;;;;;4.17;1.50;;;15.40;71.50;;;;;;5039970;28;20554;-70
2022/11/03 02:25:17;;;;;;;5.10;1.60;;;15.40;71.70;;;;;;5042354;28;20460;-70
2022/11/03 02:27:47;;;;;;;3.43;1.37;;;15.40;71.60;;;;;;5048847;28;20455;-69
2022/11/03 02:30:16;;;;;;;5.70;1.30;;;15.40;71.40;;;;;;5042000;28;20816;-70
2022/11/03 02:32:55;;;;;;;2.40;1.60;;;15.40;71.50;;;;;;5035032;28;20464;-70
2022/11/03 02:35:31;;;;;;;2.77;1.40;;;15.40;71.60;;;;;;5020770;28;20453;-68
2022/11/03 02:38:02;;;;;;;2.03;1.00;;;15.40;71.70;;;;;;5039045;28;20517;-69
2022/11/03 02:40:36;;;;;;;2.00;1.80;;;15.50;71.90;;;;;;5023049;28;21000;-71
2022/11/03 02:43:08;;;;;;;2.03;1.20;;;15.50;71.40;;;;;;5023966;28;20619;-70
2022/11/03 02:45:38;;;;;;;2.93;1.17;;;15.40;71.30;;;;;;5037313;28;20465;-69
2022/11/03 02:48:08;;;;;;;4.20;1.37;;;15.40;71.70;;;;;;5024073;28;20453;-69
2022/11/03 02:50:36;;;;;;;2.00;1.20;;;15.40;71.60;;;;;;5041405;28;20438;-70
2022/11/03 02:53:04;;;;;;;2.77;1.30;;;15.40;71.80;;;;;;5027534;28;20557;-69
2022/11/03 02:55:38;;;;;;;2.63;1.27;;;15.40;71.90;;;;;;5048951;28;20430;-69
2022/11/03 02:58:16;;;;;;;7.20;1.73;;;15.40;71.70;;;;;;5032709;28;21009;-68
2022/11/03 03:00:51;;;;;;;2.97;1.27;;;15.40;71.60;;;;;;5041376;28;20488;-69
2022/11/03 03:03:25;;;;;;;3.50;1.10;;;15.30;71.70;;;;;;5028362;28;20546;-69
2022/11/03 03:05:59;;;;;;;4.70;1.60;;;15.40;71.90;;;;;;5052300;28;20475;-69
2022/11/03 03:08:29;;;;;;;2.90;1.60;;;15.30;71.80;;;;;;5035388;28;20608;-69
2022/11/03 03:11:00;;;;;;;2.50;1.43;;;15.30;71.80;;;;;;5071939;28;20439;-69
2022/11/03 03:13:31;;;;;;;1.60;1.07;;;15.30;71.80;;;;;;5039425;28;20479;-70
2022/11/03 03:16:07;;;;;;;5.27;1.10;;;15.30;71.80;;;;;;5036429;28;20477;-70
2022/11/03 03:18:45;;;;;;;2.63;1.27;;;15.30;72.00;;;;;;5045240;28;20570;-69
2022/11/03 03:21:17;;;;;;;4.20;1.60;;;15.30;71.90;;;;;;5023178;28;20456;-69
2022/11/03 03:23:50;;;;;;;3.63;1.50;;;15.30;71.90;;;;;;5024116;28;20500;-70
2022/11/03 03:26:24;;;;;;;2.87;1.37;;;15.30;72.00;;;;;;5040049;28;20513;-69
2022/11/03 03:28:57;;;;;;;2.90;1.20;;;15.30;71.80;;;;;;5043108;28;21032;-70
2022/11/03 03:31:28;;;;;;;2.37;1.13;;;15.30;72.10;;;;;;5049282;28;20541;-69
2022/11/03 03:33:58;;;;;;;1.47;1.23;;;15.30;72.00;;;;;;5038565;28;20493;-70
2022/11/03 03:36:35;;;;;;;5.33;1.37;;;15.30;72.10;;;;;;5042223;28;20478;-70
2022/11/03 03:39:07;;;;;;;2.80;1.33;;;15.30;72.10;;;;;;5029590;28;20467;-68
2022/11/03 03:41:37;;;;;;;1.60;1.20;;;15.30;72.10;;;;;;5042428;28;20961;-68
2022/11/03 03:44:08;;;;;;;2.67;1.13;;;15.30;72.10;;;;;;5057421;28;20538;-70
2022/11/03 03:46:55;;;;;;;1.87;1.17;;;15.30;72.30;;;;;;5046338;28;20849;-70
2022/11/03 03:49:23;;;;;;;3.10;1.37;;;15.30;72.20;;;;;;5030952;28;20862;-69
2022/11/03 03:51:52;;;;;;;1.53;0.70;;;15.20;72.10;;;;;;5018463;28;21009;-70
2022/11/03 03:54:20;;;;;;;2.60;1.47;;;15.20;72.20;;;;;;5039646;28;20526;-69
2022/11/03 03:56:53;;;;;;;3.10;1.17;;;15.30;72.30;;;;;;5036519;28;20507;-68
2022/11/03 03:59:23;;;;;;;4.60;1.30;;;15.20;72.20;;;;;;5026931;28;20470;-70
2022/11/03 04:01:51;;;;;;;1.53;0.80;;;15.20;72.30;;;;;;5057045;28;20439;-69
2022/11/03 04:04:20;;;;;;;2.13;1.30;;;15.20;72.50;;;;;;5021146;28;20446;-70
2022/11/03 04:06:48;;;;;;;2.43;1.07;;;15.20;72.50;;;;;;5040508;28;20530;-70
2022/11/03 04:09:16;;;;;;;4.10;0.80;;;15.20;72.70;;;;;;5028039;28;20549;-69
2022/11/03 04:23:04;;;;;;;1.30;0.87;;;15.30;72.60;;;;;;5026969;28;20888;-70
2022/11/03 04:25:34;;;;;;;3.43;1.00;;;15.30;72.50;;;;;;5039381;28;20465;-69
2022/11/03 04:28:05;;;;;;;5.23;1.20;;;15.30;72.30;;;;;;5035488;28;20549;-69
2022/11/03 04:30:36;;;;;;;2.83;1.60;;;15.30;72.30;;;;;;5040372;28;20437;-69
2022/11/03 04:33:12;;;;;;;2.40;1.10;;;15.20;72.30;;;;;;5034027;28;20476;-70
2022/11/03 04:35:43;;;;;;;1.83;1.00;;;15.20;72.20;;;;;;5036669;28;20486;-70
2022/11/03 04:38:23;;;;;;;3.10;1.40;;;15.20;72.50;;;;;;5038773;28;20546;-69
2022/11/03 04:40:54;;;;;;;1.87;1.33;;;15.20;72.60;;;;;;5037414;28;20430;-69
2022/11/03 04:43:29;;;;;;;1.30;1.10;;;15.20;72.60;;;;;;5016389;28;20483;-68
2022/11/03 04:45:59;;;;;;;2.67;1.07;;;15.20;72.60;;;;;;5031793;28;20461;-70
2022/11/03 04:48:28;;;;;;;3.60;1.43;;;15.20;72.60;;;;;;5038949;28;20568;-70
2022/11/03 04:51:00;;;;;;;2.53;2.07;;;15.20;72.50;;;;;;5040923;28;20450;-69
2022/11/03 04:53:32;;;;;;;4.70;1.63;;;15.20;72.60;;;;;;5013994;28;20455;-69
2022/11/03 04:56:01;;;;;;;4.50;1.47;;;15.20;72.70;;;;;;5040159;28;20509;-69
2022/11/03 04:58:36;;;;;;;3.37;1.43;;;15.20;72.60;;;;;;5060292;28;20482;-70
2022/11/03 05:01:12;;;;;;;5.40;1.50;;;15.20;72.70;;;;;;5041772;28;20517;-69
2022/11/03 05:03:42;;;;;;;2.90;0.93;;;15.20;72.80;;;;;;5022731;28;20839;-68
2022/11/03 05:06:13;;;;;;;1.97;1.23;;;15.10;72.80;;;;;;5035845;28;20437;-70
2022/11/03 05:08:45;;;;;;;2.43;1.30;;;15.20;73.00;;;;;;5027244;28;20505;-68
2022/11/03 05:11:19;;;;;;;1.47;0.93;;;15.20;72.90;;;;;;5028662;28;20750;-69
2022/11/03 05:13:48;;;;;;;1.70;1.37;;;15.20;72.90;;;;;;5031048;28;20885;-69
2022/11/03 05:16:18;;;;;;;1.07;0.97;;;15.10;73.00;;;;;;5046223;28;20459;-70
2022/11/03 05:18:49;;;;;;;3.20;1.00;;;15.20;72.80;;;;;;5049610;28;20474;-69
2022/11/03 05:21:21;;;;;;;1.33;1.10;;;15.20;72.80;;;;;;5037933;28;20471;-70
2022/11/03 05:23:54;;;;;;;3.23;1.00;;;15.20;72.90;;;;;;5026433;28;21061;-70
2022/11/03 05:26:26;;;;;;;5.57;1.00;;;15.20;72.80;;;;;;5049644;28;20525;-70
2022/11/03 05:28:58;;;;;;;2.90;1.30;;;15.20;72.90;;;;;;5028060;28;20472;-69
2022/11/03 05:31:30;;;;;;;2.47;1.20;;;15.20;72.70;;;;;;5037968;28;20453;-70
2022/11/03 05:34:01;;;;;;;3.50;1.73;;;15.20;72.60;;;;;;5049107;28;20478;-68
2022/11/03 05:36:31;;;;;;;3.00;1.43;;;15.20;72.70;;;;;;5051387;28;20436;-69
2022/11/03 05:39:06;;;;;;;3.03;1.23;;;15.20;72.80;;;;;;5028171;28;20539;-68
2022/11/03 05:41:35;;;;;;;2.97;1.20;;;15.20;72.80;;;;;;5035648;28;20476;-68
2022/11/03 05:44:26;;;;;;;2.30;1.37;;;15.20;72.70;;;;;;5028191;28;20467;-70
2022/11/03 05:46:57;;;;;;;1.20;0.90;;;15.20;72.80;;;;;;5048101;28;20491;-70
2022/11/03 05:49:25;;;;;;;1.20;1.00;;;15.20;73.10;;;;;;5039613;28;20959;-69
2022/11/03 05:51:54;;;;;;;1.87;1.30;;;15.20;72.80;;;;;;5031732;28;20456;-68
2022/11/03 05:54:26;;;;;;;2.80;1.10;;;15.10;72.90;;;;;;5049933;28;20704;-69
2022/11/03 05:56:57;;;;;;;1.40;1.00;;;15.10;72.80;;;;;;5013283;28;20860;-69
2022/11/03 05:59:28;;;;;;;2.20;1.23;;;15.10;73.10;;;;;;5060583;28;20466;-69
2022/11/03 06:02:00;;;;;;;3.00;1.40;;;15.10;72.90;;;;;;5023498;28;20559;-69
2022/11/03 06:04:35;;;;;;;1.63;1.20;;;15.10;72.90;;;;;;5049720;28;20443;-70
2022/11/03 06:07:14;;;;;;;3.50;1.43;;;15.10;72.90;;;;;;5025308;28;20730;-69
2022/11/03 06:09:42;;;;;;;1.87;1.13;;;15.10;73.00;;;;;;5033195;28;20558;-69
2022/11/03 06:12:17;;;;;;;1.83;1.07;;;15.10;73.00;;;;;;5033163;28;20546;-70
2022/11/03 06:14:46;;;;;;;1.90;0.90;;;15.10;73.20;;;;;;5026121;28;20470;-70
2022/11/03 06:17:21;;;;;;;4.53;1.97;;;15.10;73.20;;;;;;5042044;28;20776;-70
2022/11/03 06:19:54;;;;;;;3.13;1.33;;;15.10;73.10;;;;;;5032883;28;20500;-68
2022/11/03 06:22:26;;;;;;;1.97;1.00;;;15.10;73.10;;;;;;5048478;28;20451;-68
2022/11/03 06:24:58;;;;;;;2.40;1.23;;;15.10;73.10;;;;;;5036561;28;20500;-69
2022/11/03 06:27:30;;;;;;;2.90;1.40;;;15.00;73.00;;;;;;5042751;28;20444;-68
2022/11/03 06:30:10;;;;;;;2.80;1.67;;;15.10;73.10;;;;;;5021704;28;20482;-69
2022/11/03 06:32:40;;;;;;;3.60;1.00;;;15.00;72.90;;;;;;5039118;28;20550;-69
2022/11/03 06:35:11;;;;;;;2.30;1.40;;;15.00;73.00;;;;;;5017938;28;20579;-68
2022/11/03 06:37:41;;;;;;;3.47;1.20;;;15.00;72.80;;;;;;5025730;28;20442;-68
2022/11/03 06:40:33;;;;;;;2.90;1.43;;;15.00;72.80;;;;;;5050686;28;21021;-68
2022/11/03 06:43:14;;;;;;;3.50;1.20;;;15.00;72.90;;;;;;5052634;28;20520;-69
2022/11/03 06:45:49;;;;;;;2.93;1.40;;;15.00;72.80;;;;;;5073827;22;20841;-72
2022/11/03 06:48:27;;;;;;;3.87;0.90;;;15.00;72.80;;;;;;5050572;28;20471;-72
2022/11/03 06:50:58;;;;;;;2.87;1.30;;;15.00;72.90;;;;;;5046592;28;20868;-72
2022/11/03 06:53:29;;;;;;;3.23;1.30;;;15.00;72.80;;;;;;5043319;28;20471;-72
2022/11/03 06:55:58;;;;;;;2.70;1.30;;;15.00;72.70;;;;;;5040590;28;20826;-72
2022/11/03 06:58:30;;;;;;;2.43;1.57;;;15.00;72.70;;;;;;5041660;28;20483;-72
2022/11/03 07:01:02;;;;;;;4.57;1.67;;;15.00;72.70;;;;;;5044729;28;20441;-72
2022/11/03 07:03:36;;;;;;;4.37;2.03;;;15.00;72.70;;;;;;5048663;28;20981;-72
2022/11/03 07:06:19;;;;;;;1.57;1.47;;;15.00;72.50;;;;;;5036511;28;20493;-73
2022/11/03 07:08:50;;;;;;;2.67;2.17;;;15.00;72.90;;;;;;5043693;28;20917;-72
2022/11/03 07:11:20;;;;;;;4.40;1.67;;;15.00;72.70;;;;;;5047719;28;20446;-72
2022/11/03 07:13:52;;;;;;;3.13;1.83;;;15.00;72.70;;;;;;5046378;28;20470;-72
2022/11/03 07:16:28;;;;;;;2.27;1.60;;;15.00;73.00;;;;;;5043970;28;20462;-72
2022/11/03 07:18:59;;;;;;;4.40;1.70;;;15.00;73.00;;;;;;5047391;28;20507;-72
2022/11/03 07:21:36;;;;;;;2.17;1.37;;;15.00;72.80;;;;;;5032516;28;20498;-72
2022/11/03 07:24:15;;;;;;;2.10;1.50;;;15.00;72.60;;;;;;5032853;28;20475;-72
2022/11/03 07:26:43;;;;;;;2.37;1.90;;;15.00;72.80;;;;;;5048338;28;20470;-71
2022/11/03 07:29:19;;;;;;;3.10;1.80;;;15.00;74.10;;;;;;5042996;28;20469;-72
2022/11/03 07:31:47;;;;;;;2.10;1.53;;;14.90;72.80;;;;;;5054630;28;20422;-72
2022/11/03 07:34:22;;;;;;;3.70;1.90;;;14.90;73.80;;;;;;5052096;28;20882;-72
2022/11/03 07:36:52;;;;;;;8.27;2.40;;;14.90;72.70;;;;;;5056442;28;21129;-72
2022/11/03 07:39:23;;;;;;;3.37;1.60;;;14.90;72.60;;;;;;5050797;28;20471;-72
2022/11/03 07:41:52;;;;;;;2.60;1.23;;;14.90;72.60;;;;;;5046217;28;20438;-72
2022/11/03 07:44:21;;;;;;;2.13;1.30;;;14.90;72.60;;;;;;5045313;28;20443;-72
2022/11/03 07:46:50;;;;;;;2.07;1.20;;;14.90;72.60;;;;;;5058279;28;20422;-72
2022/11/03 07:49:26;;;;;;;2.30;1.23;;;14.90;72.40;;;;;;5031239;28;20813;-72
2022/11/03 07:51:56;;;;;;;2.63;1.40;;;14.90;72.50;;;;;;5052804;28;20857;-72
2022/11/03 07:54:28;;;;;;;2.87;1.10;;;14.90;72.60;;;;;;5055521;28;21229;-72
2022/11/03 07:56:58;;;;;;;2.30;1.23;;;14.90;72.60;;;;;;5044683;28;20439;-72
2022/11/03 07:59:29;;;;;;;3.03;1.50;;;14.90;72.60;;;;;;5046333;28;20561;-72
2022/11/03 08:01:58;;;;;;;3.13;1.40;;;14.90;72.50;;;;;;5039706;28;20963;-72
2022/11/03 08:04:31;;;;;;;2.60;1.30;;;14.90;73.90;;;;;;5046534;28;20445;-72
2022/11/03 08:06:59;;;;;;;1.90;0.70;;;14.90;72.70;;;;;;5038739;28;20581;-72
2022/11/03 08:09:27;;;;;;;2.33;1.50;;;14.90;72.50;;;;;;5037873;28;20464;-72
2022/11/03 08:11:56;;;;;;;3.73;1.90;;;14.90;72.60;;;;;;5039010;28;20494;-72
2022/11/03 08:14:24;;;;;;;1.80;1.60;;;14.90;72.40;;;;;;5031691;28;20511;-72
2022/11/03 08:16:53;;;;;;;2.50;1.13;;;14.90;72.70;;;;;;5036911;28;20468;-72
2022/11/03 08:19:21;;;;;;;3.17;1.50;;;14.90;72.70;;;;;;5042225;28;20460;-72
2022/11/03 08:21:51;;;;;;;5.83;1.30;;;14.90;72.60;;;;;;5030505;28;20440;-72
2022/11/03 08:24:19;;;;;;;3.00;1.40;;;14.90;72.80;;;;;;5043180;28;20538;-72
2022/11/03 08:26:48;;;;;;;2.10;1.53;;;14.90;72.60;;;;;;5028923;28;20535;-72
2022/11/03 08:29:17;;;;;;;2.70;1.30;;;14.90;72.80;;;;;;5037493;28;20934;-73
2022/11/03 08:31:45;;;;;;;2.00;1.40;;;14.90;72.90;;;;;;5037538;28;20942;-72
2022/11/03 08:34:13;;;;;;;1.40;1.17;;;14.90;72.90;;;;;;5031181;28;20482;-72
2022/11/03 08:36:42;;;;;;;5.43;1.50;;;14.80;73.00;;;;;;5032619;28;20440;-72
2022/11/03 08:39:11;;;;;;;2.10;1.20;;;14.90;73.00;;;;;;5043063;28;20539;-72
2022/11/03 08:41:40;;;;;;;1.77;1.43;;;14.90;73.00;;;;;;5043073;28;20427;-72
2022/11/03 08:44:08;;;;;;;3.70;1.90;;;14.90;73.10;;;;;;5037837;28;20944;-72
2022/11/03 08:46:36;;;;;;;2.07;1.63;;;14.80;73.10;;;;;;5035958;28;20814;-72
2022/11/03 08:49:04;;;;;;;3.43;1.33;;;14.80;73.20;;;;;;5021875;28;20456;-72
2022/11/03 08:51:34;;;;;;;2.90;1.20;;;14.80;73.30;;;;;;5035740;28;20439;-73
2022/11/03 08:54:11;;;;;;;6.30;2.55;;;14.80;73.60;;;;;;5040315;28;20847;-72
2022/11/03 08:56:39;;;;;;;3.23;2.00;;;14.90;73.60;;;;;;5037955;28;20601;-72
2022/11/03 08:59:08;;;;;;;2.53;2.27;;;14.90;73.40;;;;;;5032884;28;20898;-72
2022/11/03 09:01:36;;;;;;;2.90;2.47;;;14.90;73.60;;;;;;5040230;28;20791;-72
2022/11/03 09:04:05;;;;;;;2.47;1.30;;;14.80;73.50;;;;;;5039619;28;20546;-72
2022/11/03 09:06:33;;;;;;;2.20;2.00;;;14.90;73.70;;;;;;5044384;28;20485;-72
2022/11/03 09:09:01;;;;;;;4.37;2.60;;;14.80;73.60;;;;;;5038211;28;20478;-72
2022/11/03 09:11:51;;;;;;;3.10;1.83;;;14.80;73.80;;;;;;5038180;28;20450;-72
2022/11/03 09:14:19;;;;;;;2.83;2.00;;;14.80;74.00;;;;;;5031627;28;20500;-72
2022/11/03 09:16:48;;;;;;;3.07;1.80;;;14.80;74.20;;;;;;5034772;28;20460;-72
2022/11/03 09:19:16;;;;;;;3.13;1.80;;;14.80;74.20;;;;;;5046970;28;20458;-73
2022/11/03 09:21:44;;;;;;;4.53;1.87;;;14.80;74.30;;;;;;5039357;28;20441;-72
2022/11/03 09:24:13;;;;;;;4.17;2.00;;;14.80;74.30;;;;;;5026411;28;20428;-72
2022/11/03 09:26:41;;;;;;;5.03;1.63;;;14.80;74.40;;;;;;5033657;28;20450;-71
2022/11/03 09:29:11;;;;;;;4.87;2.70;;;14.80;74.50;;;;;;5037239;28;21021;-72
2022/11/03 09:31:39;;;;;;;5.83;2.00;;;14.80;74.70;;;;;;5037398;28;21016;-72
2022/11/03 09:34:07;;;;;;;4.00;1.80;;;14.80;74.90;;;;;;5027899;28;20468;-71
2022/11/03 09:36:39;;;;;;;2.73;1.47;;;14.80;74.90;;;;;;5043034;28;20862;-72
2022/11/03 09:39:08;;;;;;;1.60;1.50;;;14.80;74.80;;;;;;5040625;28;20494;-72
2022/11/03 09:41:36;;;;;;;3.90;1.77;;;14.80;74.80;;;;;;5039618;28;20467;-72
2022/11/03 09:44:26;;;;;;;2.73;1.47;;;14.80;74.70;;;;;;5039455;28;20443;-72
2022/11/03 09:46:54;;;;;;;4.40;1.50;;;14.80;76.00;;;;;;5045243;28;20526;-72
2022/11/03 09:49:26;;;;;;;2.83;1.63;;;14.80;74.70;;;;;;5035582;28;20455;-72
2022/11/03 09:51:55;;;;;;;3.33;1.73;;;14.80;74.60;;;;;;5041587;28;20526;-72
2022/11/03 09:54:25;;;;;;;3.83;1.30;;;14.80;74.60;;;;;;5040643;28;20456;-72
2022/11/03 09:56:54;;;;;;;2.33;1.60;;;14.80;74.70;;;;;;5028505;28;20443;-72
2022/11/03 09:59:24;;;;;;;4.17;1.40;;;14.80;74.70;;;;;;5038643;28;20462;-72
2022/11/03 10:01:54;;;;;;;2.80;1.95;;;14.70;75.90;;;;;;5019943;28;20523;-72
2022/11/03 10:04:27;;;;;;;5.17;1.73;;;14.80;74.70;;;;;;5021586;28;20228;-72
2022/11/03 10:06:56;;;;;;;2.63;1.70;;;14.80;74.70;;;;;;5033384;28;20474;-72
2022/11/03 10:09:25;;;;;;;2.40;1.30;;;14.80;74.70;;;;;;5037933;28;20522;-72
2022/11/03 10:11:54;;;;;;;5.80;2.17;;;14.80;74.70;;;;;;5046423;28;20424;-72
2022/11/03 10:14:24;;;;;;;4.67;1.57;;;14.80;74.80;;;;;;5031178;28;20534;-72
2022/11/03 10:16:59;;;;;;;3.07;1.70;;;14.80;74.80;;;;;;5019427;28;20468;-72
2022/11/03 10:19:27;;;;;;;4.87;1.80;;;14.80;74.70;;;;;;5046340;28;20512;-72
2022/11/03 10:21:56;;;;;;;2.73;1.27;;;14.80;74.70;;;;;;5044548;28;20448;-72
2022/11/03 10:24:25;;;;;;;3.07;1.53;;;14.80;74.80;;;;;;5034305;28;20549;-72
2022/11/03 10:26:54;;;;;;;5.13;2.07;;;14.80;74.80;;;;;;5045453;28;20453;-72
2022/11/03 10:29:24;;;;;;;5.23;2.17;;;14.80;74.80;;;;;;5030859;28;20882;-72
2022/11/03 10:31:55;;;;;;;4.13;1.70;;;14.80;74.80;;;;;;5043301;28;20438;-72
2022/11/03 10:34:26;;;;;;;1.87;1.50;;;14.80;74.80;;;;;;5033075;28;20443;-72
2022/11/03 10:37:18;;;;;;;2.00;1.33;;;14.80;74.80;;;;;;5036828;28;20443;-72
2022/11/03 10:39:47;;;;;;;2.57;1.60;;;14.80;74.80;;;;;;5033338;28;20924;-72
2022/11/03 10:42:20;;;;;;;3.43;1.60;;;14.80;74.80;;;;;;5037986;28;20658;-72
2022/11/03 10:44:52;;;;;;;4.10;1.40;;;14.80;74.70;;;;;;5041502;28;20455;-72
2022/11/03 10:47:34;;;;;;;2.23;1.13;;;14.80;74.70;;;;;;5038936;28;20813;-72
2022/11/03 10:50:23;;;;;;;1.67;1.30;;;14.80;74.70;;;;;;5049393;28;20478;-72
2022/11/03 10:52:52;;;;;;;2.80;1.40;;;14.80;74.70;;;;;;5043464;28;20467;-72
2022/11/03 10:55:22;;;;;;;2.20;1.13;;;14.80;74.60;;;;;;5057529;28;20451;-72
2022/11/03 10:57:55;;;;;;;2.23;1.23;;;14.80;74.60;;;;;;5046068;28;20472;-72
2022/11/03 11:00:24;;;;;;;2.70;1.60;;;14.80;74.50;;;;;;5039416;28;20817;-72
2022/11/03 11:02:59;;;;;;;2.83;1.10;;;14.80;74.50;;;;;;5038395;28;20468;-72
2022/11/03 11:05:27;;;;;;;3.50;1.60;;;14.80;74.50;;;;;;5044586;28;20431;-72
2022/11/03 11:07:56;;;;;;;2.43;0.90;;;14.80;74.60;;;;;;5040435;28;20513;-72
2022/11/03 11:10:26;;;;;;;1.70;1.00;;;14.80;74.50;;;;;;5045980;28;20473;-72
2022/11/03 11:13:06;;;;;;;3.40;1.60;;;14.80;74.60;;;;;;5036244;28;20485;-72
2022/11/03 11:15:37;;;;;;;3.63;1.40;;;14.70;74.40;;;;;;5048556;28;20466;-72
2022/11/03 11:18:07;;;;;;;2.40;1.77;;;14.70;74.40;;;;;;5048174;28;20467;-72
2022/11/03 11:20:38;;;;;;;2.17;1.50;;;14.70;74.50;;;;;;5039505;28;20459;-73
2022/11/03 11:23:46;;;;;;;2.33;1.50;;;14.80;74.50;;;;;;5040636;28;20830;-72
2022/11/03 11:26:17;;;;;;;4.30;1.10;;;14.70;74.40;;;;;;4971194;28;20855;-71
2022/11/03 11:28:47;;;;;;;2.13;1.27;;;14.70;74.40;;;;;;5026424;28;20478;-72
2022/11/03 11:31:29;;;;;;;1.73;1.27;;;14.70;74.40;;;;;;5032887;28;20945;-72
2022/11/03 11:34:35;;;;;;;3.70;1.43;;;14.70;74.50;;;;;;5036498;28;20463;-73
2022/11/03 11:37:34;;;;;;;2.67;1.20;;;14.70;74.50;;;;;;5049224;28;20481;-72
2022/11/03 11:40:03;;;;;;;2.03;1.17;;;14.70;74.40;;;;;;5040984;28;20466;-72
2022/11/03 11:42:31;;;;;;;2.53;1.10;;;14.70;74.50;;;;;;5057400;28;20442;-72
2022/11/03 11:45:05;;;;;;;2.13;1.10;;;14.70;74.40;;;;;;5048972;28;20512;-73
2022/11/03 11:47:49;;;;;;;1.80;1.50;;;14.70;74.40;;;;;;5040641;28;20470;-73
2022/11/03 11:50:33;;;;;;;2.23;1.30;;;14.70;74.50;;;;;;5035408;28;20460;-72
2022/11/03 11:53:18;;;;;;;1.63;1.03;;;14.70;74.50;;;;;;5040841;28;20462;-72
2022/11/03 11:55:52;;;;;;;4.87;1.50;;;14.70;74.50;;;;;;5035820;28;20460;-72
2022/11/03 11:58:25;;;;;;;1.80;1.07;;;14.70;74.40;;;;;;5041990;28;20595;-72
2022/11/03 12:01:06;;;;;;;1.63;1.23;;;14.70;74.40;;;;;;5041798;28;20507;-72
2022/11/03 12:03:41;;;;;;;1.87;1.37;;;14.70;74.50;;;;;;5040282;28;20522;-72
2022/11/03 12:06:13;;;;;;;2.23;1.33;;;14.70;74.40;;;;;;5057545;28;20428;-72
2022/11/03 12:08:43;;;;;;;2.00;1.10;;;14.70;74.40;;;;;;5035227;28;20522;-72
2022/11/03 12:11:12;;;;;;;3.43;1.50;;;14.70;74.40;;;;;;5045944;28;20889;-72
2022/11/03 12:13:47;;;;;;;2.20;1.00;;;14.70;74.30;;;;;;5043937;28;20853;-72
2022/11/03 12:16:32;;;;;;;1.27;1.00;;;14.70;74.20;;;;;;5045236;28;20467;-72
2022/11/03 12:19:34;;;;;;;2.30;1.53;;;14.70;74.30;;;;;;5038709;28;20850;-72
2022/11/03 12:22:03;;;;;;;3.47;1.63;;;14.70;74.30;;;;;;5032707;28;20457;-72
2022/11/03 12:24:48;;;;;;;1.73;1.40;;;14.70;74.20;;;;;;5043857;28;20448;-72
2022/11/03 12:27:37;;;;;;;2.30;1.10;;;14.70;74.20;;;;;;5042140;28;20481;-72
2022/11/03 12:30:11;;;;;;;3.13;1.03;;;14.70;74.20;;;;;;5039671;28;20905;-72
2022/11/03 12:32:39;;;;;;;2.10;1.40;;;14.70;74.20;;;;;;5041221;28;20497;-72
2022/11/03 12:35:09;;;;;;;2.60;1.30;;;14.70;74.10;;;;;;5064068;28;20431;-72
2022/11/03 12:37:38;;;;;;;2.83;1.47;;;14.70;74.10;;;;;;5044610;28;20471;-72
2022/11/03 12:40:09;;;;;;;2.27;1.10;;;14.70;74.10;;;;;;5043999;28;20454;-72
2022/11/03 12:42:38;;;;;;;1.83;1.30;;;14.70;74.00;;;;;;5043945;28;20785;-72
2022/11/03 12:45:12;;;;;;;3.10;1.00;;;14.70;74.00;;;;;;5152400;22;20482;-68
2022/11/03 12:47:41;;;;;;;2.90;1.50;;;14.70;73.90;;;;;;5068138;28;20426;-69
2022/11/03 12:50:10;;;;;;;4.17;0.90;;;14.70;73.80;;;;;;5063988;28;20615;-68
2022/11/03 12:52:38;;;;;;;1.73;1.13;;;14.70;73.80;;;;;;5062990;28;20547;-68
2022/11/03 12:55:09;;;;;;;2.03;1.20;;;14.70;74.00;;;;;;5059662;28;20960;-69
2022/11/03 12:57:37;;;;;;;1.53;1.13;;;14.70;74.00;;;;;;5066320;28;20523;-69
2022/11/03 13:00:07;;;;;;;3.00;1.30;;;14.70;73.90;;;;;;5058810;28;20789;-68
2022/11/03 13:02:36;;;;;;;1.60;1.47;;;14.70;73.90;;;;;;5075170;28;20561;-69
2022/11/03 13:05:05;;;;;;;1.50;0.97;;;14.70;74.10;;;;;;5066709;28;20433;-68
2022/11/03 13:07:34;;;;;;;3.13;1.00;;;14.70;74.10;;;;;;5055415;28;20432;-69
2022/11/03 13:10:03;;;;;;;2.10;1.10;;;14.70;74.10;;;;;;5075091;28;20884;-68
2022/11/03 13:12:35;;;;;;;3.33;1.13;;;14.70;74.10;;;;;;5062595;28;20556;-69
2022/11/03 13:15:07;;;;;;;2.07;1.00;;;14.70;74.00;;;;;;5066142;28;20442;-69
2022/11/03 13:17:35;;;;;;;2.17;1.43;;;14.70;74.10;;;;;;5067152;28;20466;-68
2022/11/03 13:20:24;;;;;;;1.40;1.20;;;14.70;74.10;;;;;;5059707;28;20472;-69
2022/11/03 13:22:53;;;;;;;3.70;1.30;;;14.70;74.20;;;;;;5065412;28;20462;-69
2022/11/03 13:25:23;;;;;;;3.30;1.50;;;14.70;74.30;;;;;;5077455;28;20949;-69
2022/11/03 13:27:53;;;;;;;1.40;1.10;;;14.70;74.20;;;;;;5090576;28;20438;-68